sensor_id;sensor_type;location;lat;lon;timestamp;pressure;altitude;pressure_sealevel;temperature;humidity
17525;BME280;40431;52.198;9.902;2023-06-26T00:01:32;100541.34;;;23.36;76.87
17525;BME280;40431;52.198;9.902;2023-06-26T00:03:59;100541.34;;;23.36;76.83
17525;BME280;40431;52.198;9.902;2023-06-26T00:06:26;100543.41;;;23.34;76.68
17525;BME280;40431;52.198;9.902;2023-06-26T00:08:54;100542.69;;;23.32;76.85
17525;BME280;40431;52.198;9.902;2023-06-26T00:11:20;100536.50;;;23.30;76.60
17525;BME280;40431;52.198;9.902;2023-06-26T00:13:48;100536.16;;;23.25;77.07
17525;BME280;40431;52.198;9.902;2023-06-26T00:16:14;100537.19;;;23.24;77.16
17525;BME280;40431;52.198;9.902;2023-06-26T00:18:41;100536.16;;;23.25;77.13
17525;BME280;40431;52.198;9.902;2023-06-26T00:21:07;100533.72;;;23.30;76.91
17525;BME280;40431;52.198;9.902;2023-06-26T00:23:34;100525.06;;;23.33;78.12
17525;BME280;40431;52.198;9.902;2023-06-26T00:26:02;100530.59;;;23.33;76.69
17525;BME280;40431;52.198;9.902;2023-06-26T00:28:28;100524.22;;;23.32;76.27
17525;BME280;40431;52.198;9.902;2023-06-26T00:30:56;100525.94;;;23.33;76.24
17525;BME280;40431;52.198;9.902;2023-06-26T00:33:22;100527.16;;;23.31;78.61
17525;BME280;40431;52.198;9.902;2023-06-26T00:35:49;100524.22;;;23.32;74.76
17525;BME280;40431;52.198;9.902;2023-06-26T00:38:15;100527.69;;;23.26;73.90
17525;BME280;40431;52.198;9.902;2023-06-26T00:40:42;100527.00;;;23.24;73.61
17525;BME280;40431;52.198;9.902;2023-06-26T00:43:09;100527.88;;;23.25;72.94
17525;BME280;40431;52.198;9.902;2023-06-26T00:45:35;100527.88;;;23.25;73.54
17525;BME280;40431;52.198;9.902;2023-06-26T00:48:03;100522.16;;;23.26;76.11
17525;BME280;40431;52.198;9.902;2023-06-26T00:50:30;100527.88;;;23.25;79.78
17525;BME280;40431;52.198;9.902;2023-06-26T00:52:57;100517.88;;;23.15;81.58
17525;BME280;40431;52.198;9.902;2023-06-26T00:55:25;100512.66;;;23.04;83.85
17525;BME280;40431;52.198;9.902;2023-06-26T00:57:52;100510.63;;;22.98;85.01
17525;BME280;40431;52.198;9.902;2023-06-26T01:00:18;100503.19;;;22.90;85.03
17525;BME280;40431;52.198;9.902;2023-06-26T01:02:45;100506.50;;;22.85;84.30
17525;BME280;40431;52.198;9.902;2023-06-26T01:05:13;100504.25;;;22.81;82.38
17525;BME280;40431;52.198;9.902;2023-06-26T01:07:47;100505.81;;;22.83;80.83
17525;BME280;40431;52.198;9.902;2023-06-26T01:10:13;100491.13;;;22.83;78.90
17525;BME280;40431;52.198;9.902;2023-06-26T01:12:40;100501.31;;;22.82;78.66
17525;BME280;40431;52.198;9.902;2023-06-26T01:15:07;100503.41;;;22.80;78.32
17525;BME280;40431;52.198;9.902;2023-06-26T01:17:37;100502.88;;;22.77;78.17
17525;BME280;40431;52.198;9.902;2023-06-26T01:20:05;100503.56;;;22.71;78.23
17525;BME280;40431;52.198;9.902;2023-06-26T01:22:39;100493.41;;;22.71;77.99
17525;BME280;40431;52.198;9.902;2023-06-26T01:25:15;100490.28;;;22.66;77.29
17525;BME280;40431;52.198;9.902;2023-06-26T01:27:46;100490.09;;;22.67;77.92
17525;BME280;40431;52.198;9.902;2023-06-26T01:30:13;100488.19;;;22.68;77.31
17525;BME280;40431;52.198;9.902;2023-06-26T01:32:40;100494.59;;;22.68;76.58
17525;BME280;40431;52.198;9.902;2023-06-26T01:35:08;100483.03;;;22.65;77.95
17525;BME280;40431;52.198;9.902;2023-06-26T01:37:34;100483.38;;;22.62;77.88
17525;BME280;40431;52.198;9.902;2023-06-26T01:40:00;100478.53;;;22.56;77.58
17525;BME280;40431;52.198;9.902;2023-06-26T01:42:30;100476.81;;;22.55;77.75
17525;BME280;40431;52.198;9.902;2023-06-26T01:45:02;100470.63;;;22.52;77.89
17525;BME280;40431;52.198;9.902;2023-06-26T01:47:33;100469.91;;;22.50;78.10
17525;BME280;40431;52.198;9.902;2023-06-26T01:50:06;100469.91;;;22.50;78.53
17525;BME280;40431;52.198;9.902;2023-06-26T01:52:39;100467.16;;;22.50;77.99
17525;BME280;40431;52.198;9.902;2023-06-26T01:55:12;100465.94;;;22.53;78.01
17525;BME280;40431;52.198;9.902;2023-06-26T01:57:41;100465.94;;;22.53;77.42
17525;BME280;40431;52.198;9.902;2023-06-26T02:00:11;100453.34;;;22.50;80.22
17525;BME280;40431;52.198;9.902;2023-06-26T02:02:38;100458.16;;;22.40;82.89
17525;BME280;40431;52.198;9.902;2023-06-26T02:05:04;100451.25;;;22.19;84.99
17525;BME280;40431;52.198;9.902;2023-06-26T02:07:31;100453.13;;;21.94;86.70
17525;BME280;40431;52.198;9.902;2023-06-26T02:09:57;100459.44;;;21.62;88.85
17525;BME280;40431;52.198;9.902;2023-06-26T02:12:23;100451.75;;;21.39;90.45
17525;BME280;40431;52.198;9.902;2023-06-26T02:14:50;100445.69;;;21.27;91.76
17525;BME280;40431;52.198;9.902;2023-06-26T02:17:17;100446.19;;;21.23;92.04
17525;BME280;40431;52.198;9.902;2023-06-26T02:19:44;100440.31;;;21.17;92.01
17525;BME280;40431;52.198;9.902;2023-06-26T02:22:13;100446.16;;;21.14;92.17
17525;BME280;40431;52.198;9.902;2023-06-26T02:24:39;100447.00;;;21.15;90.97
17525;BME280;40431;52.198;9.902;2023-06-26T02:27:05;100450.31;;;21.18;91.72
17525;BME280;40431;52.198;9.902;2023-06-26T02:29:32;100450.34;;;21.27;91.75
17525;BME280;40431;52.198;9.902;2023-06-26T02:31:58;100446.56;;;21.28;89.89
17525;BME280;40431;52.198;9.902;2023-06-26T02:34:26;100446.72;;;21.26;90.53
17525;BME280;40431;52.198;9.902;2023-06-26T02:36:52;100445.16;;;21.24;90.94
17525;BME280;40431;52.198;9.902;2023-06-26T02:39:20;100446.19;;;21.23;91.65
17525;BME280;40431;52.198;9.902;2023-06-26T02:41:46;100445.16;;;21.24;92.02
17525;BME280;40431;52.198;9.902;2023-06-26T02:44:13;100442.06;;;21.27;92.97
17525;BME280;40431;52.198;9.902;2023-06-26T02:46:39;100437.25;;;21.29;93.00
17525;BME280;40431;52.198;9.902;2023-06-26T02:49:06;100435.88;;;21.33;94.03
17525;BME280;40431;52.198;9.902;2023-06-26T02:51:34;100438.66;;;21.33;94.32
17525;BME280;40431;52.198;9.902;2023-06-26T02:54:00;100430.75;;;21.38;95.50
17525;BME280;40431;52.198;9.902;2023-06-26T02:56:27;100421.75;;;21.36;94.05
17525;BME280;40431;52.198;9.902;2023-06-26T02:58:54;100421.41;;;21.39;95.04
17525;BME280;40431;52.198;9.902;2023-06-26T03:01:21;100423.50;;;21.37;93.52
17525;BME280;40431;52.198;9.902;2023-06-26T03:03:47;100417.97;;;21.37;92.24
17525;BME280;40431;52.198;9.902;2023-06-26T03:06:14;100426.41;;;21.35;91.54
17525;BME280;40431;52.198;9.902;2023-06-26T03:08:42;100421.56;;;21.29;91.13
17525;BME280;40431;52.198;9.902;2023-06-26T03:11:08;100409.69;;;21.29;89.90
17525;BME280;40431;52.198;9.902;2023-06-26T03:13:36;100415.50;;;21.26;89.81
17525;BME280;40431;52.198;9.902;2023-06-26T03:16:03;100413.81;;;21.25;90.12
17525;BME280;40431;52.198;9.902;2023-06-26T03:18:29;100406.88;;;21.21;89.46
17525;BME280;40431;52.198;9.902;2023-06-26T03:20:56;100412.06;;;21.15;90.22
17525;BME280;40431;52.198;9.902;2023-06-26T03:23:23;100411.00;;;21.16;90.74
17525;BME280;40431;52.198;9.902;2023-06-26T03:25:51;100411.34;;;21.13;90.34
17525;BME280;40431;52.198;9.902;2023-06-26T03:28:17;100398.28;;;21.15;90.46
17525;BME280;40431;52.198;9.902;2023-06-26T03:30:44;100403.44;;;21.18;91.15
17525;BME280;40431;52.198;9.902;2023-06-26T03:33:10;100405.47;;;21.16;90.68
17525;BME280;40431;52.198;9.902;2023-06-26T03:35:37;100404.13;;;21.21;91.56
17525;BME280;40431;52.198;9.902;2023-06-26T03:38:04;100399.84;;;21.26;91.79
17525;BME280;40431;52.198;9.902;2023-06-26T03:40:30;100400.53;;;21.28;91.93
17525;BME280;40431;52.198;9.902;2023-06-26T03:42:58;100410.72;;;21.36;89.56
17525;BME280;40431;52.198;9.902;2023-06-26T03:45:25;100399.53;;;21.46;89.44
17525;BME280;40431;52.198;9.902;2023-06-26T03:47:51;100395.25;;;21.51;88.51
17525;BME280;40431;52.198;9.902;2023-06-26T03:50:18;100388.06;;;21.59;88.08
17525;BME280;40431;52.198;9.902;2023-06-26T03:52:44;100392.56;;;21.68;88.18
17525;BME280;40431;52.198;9.902;2023-06-26T03:55:11;100388.78;;;21.77;90.20
17525;BME280;40431;52.198;9.902;2023-06-26T03:57:37;100387.06;;;21.84;87.79
17525;BME280;40431;52.198;9.902;2023-06-26T04:00:06;100390.00;;;21.91;85.62
17525;BME280;40431;52.198;9.902;2023-06-26T04:02:34;100388.09;;;22.00;85.21
17525;BME280;40431;52.198;9.902;2023-06-26T04:05:00;100392.22;;;22.04;85.21
17525;BME280;40431;52.198;9.902;2023-06-26T04:07:28;100389.31;;;22.14;83.41
17525;BME280;40431;52.198;9.902;2023-06-26T04:09:54;100391.03;;;22.23;82.27
17525;BME280;40431;52.198;9.902;2023-06-26T04:12:21;100383.28;;;22.35;81.04
17525;BME280;40431;52.198;9.902;2023-06-26T04:14:47;100387.41;;;22.39;81.41
17525;BME280;40431;52.198;9.902;2023-06-26T04:17:15;100388.25;;;22.48;79.95
17525;BME280;40431;52.198;9.902;2023-06-26T04:19:41;100382.88;;;22.55;79.81
17525;BME280;40431;52.198;9.902;2023-06-26T04:22:07;100382.19;;;22.61;80.01
17525;BME280;40431;52.198;9.902;2023-06-26T04:24:34;100375.22;;;22.73;79.21
17525;BME280;40431;52.198;9.902;2023-06-26T04:27:00;100377.09;;;22.81;79.10
17525;BME280;40431;52.198;9.902;2023-06-26T04:29:27;100373.44;;;22.89;79.70
17525;BME280;40431;52.198;9.902;2023-06-26T04:31:53;100369.28;;;22.93;80.39
17525;BME280;40431;52.198;9.902;2023-06-26T04:34:24;100366.47;;;23.01;79.14
17525;BME280;40431;52.198;9.902;2023-06-26T04:36:50;100360.41;;;23.06;78.67
17525;BME280;40431;52.198;9.902;2023-06-26T04:39:17;100366.28;;;23.11;79.29
17525;BME280;40431;52.198;9.902;2023-06-26T04:41:43;100362.63;;;23.18;78.41
17525;BME280;40431;52.198;9.902;2023-06-26T04:44:10;100358.94;;;23.26;79.14
17525;BME280;40431;52.198;9.902;2023-06-26T04:46:37;100349.75;;;23.34;79.54
17525;BME280;40431;52.198;9.902;2023-06-26T04:49:06;100366.78;;;23.46;78.27
17525;BME280;40431;52.198;9.902;2023-06-26T04:51:33;100353.75;;;23.55;78.60
17525;BME280;40431;52.198;9.902;2023-06-26T04:54:05;100352.16;;;23.60;79.69
17525;BME280;40431;52.198;9.902;2023-06-26T04:56:32;100352.94;;;23.69;79.46
17525;BME280;40431;52.198;9.902;2023-06-26T04:58:58;100351.66;;;23.80;79.93
17525;BME280;40431;52.198;9.902;2023-06-26T05:01:25;100349.38;;;23.83;79.32
17525;BME280;40431;52.198;9.902;2023-06-26T05:03:54;100337.97;;;23.87;78.47
17525;BME280;40431;52.198;9.902;2023-06-26T05:06:21;100347.63;;;23.91;79.70
17525;BME280;40431;52.198;9.902;2023-06-26T05:08:48;100335.50;;;23.92;80.12
17525;BME280;40431;52.198;9.902;2023-06-26T05:11:15;100341.84;;;24.00;80.60
17525;BME280;40431;52.198;9.902;2023-06-26T05:13:41;100341.44;;;24.04;79.51
17525;BME280;40431;52.198;9.902;2023-06-26T05:16:08;100337.56;;;24.13;79.06
17525;BME280;40431;52.198;9.902;2023-06-26T05:18:35;100339.38;;;24.21;80.04
17525;BME280;40431;52.198;9.902;2023-06-26T05:21:02;100341.22;;;24.28;78.33
17525;BME280;40431;52.198;9.902;2023-06-26T05:23:30;100343.91;;;24.37;78.45
17525;BME280;40431;52.198;9.902;2023-06-26T05:25:59;100335.78;;;24.50;77.13
17525;BME280;40431;52.198;9.902;2023-06-26T05:28:26;100328.59;;;24.56;77.30
17525;BME280;40431;52.198;9.902;2023-06-26T05:30:53;100326.84;;;24.63;77.05
17525;BME280;40431;52.198;9.902;2023-06-26T05:33:23;100325.69;;;24.72;76.45
17525;BME280;40431;52.198;9.902;2023-06-26T05:35:51;100320.72;;;24.82;74.83
17525;BME280;40431;52.198;9.902;2023-06-26T05:38:18;100317.84;;;24.91;75.15
17525;BME280;40431;52.198;9.902;2023-06-26T05:40:45;100316.66;;;25.00;75.14
17525;BME280;40431;52.198;9.902;2023-06-26T05:43:14;100319.72;;;25.05;75.47
17525;BME280;40431;52.198;9.902;2023-06-26T05:45:41;100316.16;;;25.11;75.33
17525;BME280;40431;52.198;9.902;2023-06-26T05:48:07;100317.31;;;25.17;75.21
17525;BME280;40431;52.198;9.902;2023-06-26T05:50:34;100309.69;;;25.26;75.89
17525;BME280;40431;52.198;9.902;2023-06-26T05:53:01;100315.25;;;25.26;74.10
17525;BME280;40431;52.198;9.902;2023-06-26T05:55:28;100304.81;;;25.28;69.68
17525;BME280;40431;52.198;9.902;2023-06-26T05:57:56;100309.78;;;25.32;70.09
17525;BME280;40431;52.198;9.902;2023-06-26T06:00:26;100306.06;;;25.40;66.53
17525;BME280;40431;52.198;9.902;2023-06-26T06:02:53;100301.41;;;25.47;66.53
17525;BME280;40431;52.198;9.902;2023-06-26T06:05:20;100297.44;;;25.57;65.85
17525;BME280;40431;52.198;9.902;2023-06-26T06:07:46;100301.94;;;25.58;66.10
17525;BME280;40431;52.198;9.902;2023-06-26T06:10:13;100303.53;;;25.67;67.01
17525;BME280;40431;52.198;9.902;2023-06-26T06:12:39;100305.78;;;25.78;66.11
17525;BME280;40431;52.198;9.902;2023-06-26T06:15:07;100307.09;;;25.82;66.75
17525;BME280;40431;52.198;9.902;2023-06-26T06:17:35;100292.44;;;25.89;65.07
17525;BME280;40431;52.198;9.902;2023-06-26T06:20:02;100297.56;;;25.92;65.69
17525;BME280;40431;52.198;9.902;2023-06-26T06:22:29;100298.88;;;25.96;65.86
17525;BME280;40431;52.198;9.902;2023-06-26T06:24:55;100304.31;;;26.04;65.27
17525;BME280;40431;52.198;9.902;2023-06-26T06:27:22;100296.84;;;26.05;64.88
17525;BME280;40431;52.198;9.902;2023-06-26T06:29:48;100302.22;;;26.06;64.98
17525;BME280;40431;52.198;9.902;2023-06-26T06:32:14;100307.59;;;26.14;67.21
17525;BME280;40431;52.198;9.902;2023-06-26T06:34:42;100304.28;;;26.32;69.04
17525;BME280;40431;52.198;9.902;2023-06-26T06:37:08;100302.91;;;26.43;64.20
17525;BME280;40431;52.198;9.902;2023-06-26T06:39:35;100300.16;;;26.50;64.07
17525;BME280;40431;52.198;9.902;2023-06-26T06:42:01;100297.66;;;26.62;66.01
17525;BME280;40431;52.198;9.902;2023-06-26T06:44:27;100308.44;;;26.78;65.66
17525;BME280;40431;52.198;9.902;2023-06-26T06:46:55;100304.63;;;26.86;64.83
17525;BME280;40431;52.198;9.902;2023-06-26T06:49:22;100303.19;;;26.97;64.27
17525;BME280;40431;52.198;9.902;2023-06-26T06:51:49;100303.41;;;26.95;62.91
17525;BME280;40431;52.198;9.902;2023-06-26T06:54:16;100302.16;;;27.05;62.22
17525;BME280;40431;52.198;9.902;2023-06-26T06:56:43;100302.56;;;27.08;62.72
17525;BME280;40431;52.198;9.902;2023-06-26T06:59:09;100302.59;;;27.15;61.06
17525;BME280;40431;52.198;9.902;2023-06-26T07:01:35;100300.91;;;27.21;63.11
17525;BME280;40431;52.198;9.902;2023-06-26T07:04:02;100296.00;;;27.29;62.58
17525;BME280;40431;52.198;9.902;2023-06-26T07:06:29;100287.06;;;27.41;63.13
17525;BME280;40431;52.198;9.902;2023-06-26T07:08:56;100286.03;;;27.48;62.21
17525;BME280;40431;52.198;9.902;2023-06-26T07:11:23;100288.16;;;27.46;59.21
17525;BME280;40431;52.198;9.902;2023-06-26T07:13:49;100302.28;;;27.52;61.63
17525;BME280;40431;52.198;9.902;2023-06-26T07:16:16;100295.00;;;27.50;59.58
17525;BME280;40431;52.198;9.902;2023-06-26T07:18:43;100295.00;;;27.57;60.70
17525;BME280;40431;52.198;9.902;2023-06-26T07:21:09;100304.03;;;27.59;60.33
17525;BME280;40431;52.198;9.902;2023-06-26T07:23:36;100302.50;;;27.50;60.46
17525;BME280;40431;52.198;9.902;2023-06-26T07:26:03;100299.28;;;27.46;61.13
17525;BME280;40431;52.198;9.902;2023-06-26T07:28:30;100297.19;;;27.62;61.98
17525;BME280;40431;52.198;9.902;2023-06-26T07:30:56;100298.47;;;27.79;63.55
17525;BME280;40431;52.198;9.902;2023-06-26T07:33:22;100295.03;;;27.77;58.28
17525;BME280;40431;52.198;9.902;2023-06-26T07:35:49;100299.31;;;27.73;60.67
17525;BME280;40431;52.198;9.902;2023-06-26T07:38:16;100304.25;;;27.85;62.75
17525;BME280;40431;52.198;9.902;2023-06-26T07:40:42;100301.03;;;27.88;58.33
17525;BME280;40431;52.198;9.902;2023-06-26T07:43:10;100298.03;;;27.96;59.35
17525;BME280;40431;52.198;9.902;2023-06-26T07:45:36;100301.06;;;28.01;57.68
17525;BME280;40431;52.198;9.902;2023-06-26T07:48:02;100289.03;;;27.87;59.23
17525;BME280;40431;52.198;9.902;2023-06-26T07:50:29;100295.25;;;27.82;57.89
17525;BME280;40431;52.198;9.902;2023-06-26T07:52:55;100291.19;;;27.78;57.76
17525;BME280;40431;52.198;9.902;2023-06-26T07:55:22;100296.97;;;27.83;59.30
17525;BME280;40431;52.198;9.902;2023-06-26T07:57:48;100297.63;;;27.99;61.49
17525;BME280;40431;52.198;9.902;2023-06-26T08:00:18;100292.47;;;28.09;57.17
17525;BME280;40431;52.198;9.902;2023-06-26T08:02:45;100289.69;;;28.09;57.81
17525;BME280;40431;52.198;9.902;2023-06-26T08:05:11;100288.16;;;28.00;58.53
17525;BME280;40431;52.198;9.902;2023-06-26T08:07:37;100288.16;;;28.00;58.59
17525;BME280;40431;52.198;9.902;2023-06-26T08:10:05;100293.56;;;27.95;59.87
17525;BME280;40431;52.198;9.902;2023-06-26T08:12:31;100289.44;;;27.91;60.72
17525;BME280;40431;52.198;9.902;2023-06-26T08:14:57;100286.88;;;27.96;59.11
17525;BME280;40431;52.198;9.902;2023-06-26T08:17:25;100295.94;;;28.05;61.59
17525;BME280;40431;52.198;9.902;2023-06-26T08:19:52;100286.47;;;27.99;59.57
17525;BME280;40431;52.198;9.902;2023-06-26T08:22:18;100283.03;;;27.97;57.82
17525;BME280;40431;52.198;9.902;2023-06-26T08:24:44;100288.16;;;27.87;59.17
17525;BME280;40431;52.198;9.902;2023-06-26T08:27:11;100290.56;;;27.83;59.35
17525;BME280;40431;52.198;9.902;2023-06-26T08:29:37;100294.84;;;27.86;59.25
17525;BME280;40431;52.198;9.902;2023-06-26T08:32:04;100281.09;;;27.91;61.69
17525;BME280;40431;52.198;9.902;2023-06-26T08:34:32;100284.75;;;27.91;61.68
17525;BME280;40431;52.198;9.902;2023-06-26T08:36:58;100286.72;;;28.04;61.23
17525;BME280;40431;52.198;9.902;2023-06-26T08:39:25;100279.63;;;28.08;59.44
17525;BME280;40431;52.198;9.902;2023-06-26T08:41:52;100269.34;;;28.09;58.75
17525;BME280;40431;52.198;9.902;2023-06-26T08:44:19;100271.06;;;28.10;57.85
17525;BME280;40431;52.198;9.902;2023-06-26T08:46:49;100273.84;;;28.10;59.35
17525;BME280;40431;52.198;9.902;2023-06-26T08:49:18;100272.97;;;28.23;60.29
17525;BME280;40431;52.198;9.902;2023-06-26T08:51:51;100274.88;;;28.29;59.77
17525;BME280;40431;52.198;9.902;2023-06-26T08:54:22;100274.88;;;28.29;60.14
17525;BME280;40431;52.198;9.902;2023-06-26T08:56:54;100265.22;;;28.31;58.83
17525;BME280;40431;52.198;9.902;2023-06-26T08:59:22;100282.16;;;28.30;59.32
17525;BME280;40431;52.198;9.902;2023-06-26T09:01:48;100286.88;;;28.43;60.37
17525;BME280;40431;52.198;9.902;2023-06-26T09:04:16;100299.28;;;28.54;60.83
17525;BME280;40431;52.198;9.902;2023-06-26T09:06:42;100308.72;;;28.46;59.33
17525;BME280;40431;52.198;9.902;2023-06-26T09:09:11;100318.19;;;28.38;60.30
17525;BME280;40431;52.198;9.902;2023-06-26T09:11:37;100317.34;;;28.31;62.85
17525;BME280;40431;52.198;9.902;2023-06-26T09:14:04;100322.47;;;28.41;63.86
17525;BME280;40431;52.198;9.902;2023-06-26T09:16:39;100323.13;;;28.36;61.65
17525;BME280;40431;52.198;9.902;2023-06-26T09:19:09;100324.63;;;28.45;62.15
17525;BME280;40431;52.198;9.902;2023-06-26T09:21:36;100325.28;;;28.27;63.14
17525;BME280;40431;52.198;9.902;2023-06-26T09:24:03;100326.34;;;28.06;63.21
17525;BME280;40431;52.198;9.902;2023-06-26T09:26:31;100333.41;;;27.95;62.95
17525;BME280;40431;52.198;9.902;2023-06-26T09:28:57;100315.63;;;27.83;64.02
17525;BME280;40431;52.198;9.902;2023-06-26T09:31:24;100321.81;;;27.78;63.19
17525;BME280;40431;52.198;9.902;2023-06-26T09:33:55;100323.75;;;27.71;64.18
17525;BME280;40431;52.198;9.902;2023-06-26T09:36:28;100319.91;;;27.72;64.23
17525;BME280;40431;52.198;9.902;2023-06-26T09:38:58;100329.56;;;27.90;64.28
17525;BME280;40431;52.198;9.902;2023-06-26T09:41:24;100334.25;;;27.96;65.12
17525;BME280;40431;52.198;9.902;2023-06-26T09:43:58;100340.94;;;28.08;63.70
17525;BME280;40431;52.198;9.902;2023-06-26T09:46:28;100344.38;;;28.10;66.05
17525;BME280;40431;52.198;9.902;2023-06-26T09:49:00;100350.38;;;28.21;66.63
17525;BME280;40431;52.198;9.902;2023-06-26T09:51:29;100348.66;;;28.06;65.78
17525;BME280;40431;52.198;9.902;2023-06-26T09:53:55;100343.88;;;27.87;66.22
17525;BME280;40431;52.198;9.902;2023-06-26T09:56:21;100347.31;;;27.75;66.50
17525;BME280;40431;52.198;9.902;2023-06-26T09:58:49;100358.66;;;27.54;66.51
17525;BME280;40431;52.198;9.902;2023-06-26T10:01:17;100362.03;;;27.42;66.58
17525;BME280;40431;52.198;9.902;2023-06-26T10:03:43;100372.44;;;27.33;66.46
17525;BME280;40431;52.198;9.902;2023-06-26T10:06:11;100369.03;;;27.31;66.75
17525;BME280;40431;52.198;9.902;2023-06-26T10:08:41;100374.59;;;26.90;66.83
17525;BME280;40431;52.198;9.902;2023-06-26T10:11:12;100383.69;;;26.70;65.90
17525;BME280;40431;52.198;9.902;2023-06-26T10:13:42;100382.69;;;26.49;66.92
17525;BME280;40431;52.198;9.902;2023-06-26T10:16:11;100393.22;;;26.32;66.89
17525;BME280;40431;52.198;9.902;2023-06-26T10:18:40;100404.06;;;26.21;67.69
17525;BME280;40431;52.198;9.902;2023-06-26T10:21:07;100404.50;;;26.03;69.52
17525;BME280;40431;52.198;9.902;2023-06-26T10:23:36;100405.38;;;26.03;72.88
17525;BME280;40431;52.198;9.902;2023-06-26T10:26:02;100413.81;;;25.95;71.84
17525;BME280;40431;52.198;9.902;2023-06-26T10:28:30;100415.94;;;25.93;72.26
17525;BME280;40431;52.198;9.902;2023-06-26T10:30:58;100422.34;;;25.93;73.00
17525;BME280;40431;52.198;9.902;2023-06-26T10:33:26;100423.38;;;26.07;74.94
17525;BME280;40431;52.198;9.902;2023-06-26T10:36:12;100425.88;;;26.02;76.13
17525;BME280;40431;52.198;9.902;2023-06-26T10:38:49;100417.53;;;26.02;77.13
17525;BME280;40431;52.198;9.902;2023-06-26T10:41:19;100417.28;;;26.19;76.78
17525;BME280;40431;52.198;9.902;2023-06-26T10:43:49;100414.03;;;26.15;76.35
17525;BME280;40431;52.198;9.902;2023-06-26T10:46:17;100411.03;;;25.95;76.23
17525;BME280;40431;52.198;9.902;2023-06-26T10:48:56;100439.22;;;25.92;79.19
17525;BME280;40431;52.198;9.902;2023-06-26T10:51:25;100461.16;;;25.87;80.07
17525;BME280;40431;52.198;9.902;2023-06-26T10:53:54;100469.59;;;25.42;85.76
17525;BME280;40431;52.198;9.902;2023-06-26T10:56:21;100473.63;;;24.94;89.52
17525;BME280;40431;52.198;9.902;2023-06-26T10:58:47;100475.94;;;24.67;93.14
17525;BME280;40431;52.198;9.902;2023-06-26T11:01:17;100468.16;;;24.25;94.92
17525;BME280;40431;52.198;9.902;2023-06-26T11:03:45;100474.56;;;24.02;96.32
17525;BME280;40431;52.198;9.902;2023-06-26T11:06:14;100483.06;;;24.00;96.79
17525;BME280;40431;52.198;9.902;2023-06-26T11:08:48;100482.94;;;23.94;94.81
17525;BME280;40431;52.198;9.902;2023-06-26T11:11:17;100490.56;;;23.92;96.67
17525;BME280;40431;52.198;9.902;2023-06-26T11:13:45;100490.97;;;24.12;93.46
17525;BME280;40431;52.198;9.902;2023-06-26T11:16:12;100494.09;;;24.32;89.78
17525;BME280;40431;52.198;9.902;2023-06-26T11:18:39;100486.38;;;24.65;88.16
17525;BME280;40431;52.198;9.902;2023-06-26T11:21:07;100486.38;;;24.65;84.26
17525;BME280;40431;52.198;9.902;2023-06-26T11:23:34;100489.75;;;24.52;86.50
17525;BME280;40431;52.198;9.902;2023-06-26T11:26:15;100489.75;;;24.52;88.04
17525;BME280;40431;52.198;9.902;2023-06-26T11:28:47;100491.47;;;24.54;88.27
17525;BME280;40431;52.198;9.902;2023-06-26T11:31:27;100501.59;;;24.46;88.48
17525;BME280;40431;52.198;9.902;2023-06-26T11:33:55;100501.00;;;24.74;88.15
17525;BME280;40431;52.198;9.902;2023-06-26T11:36:23;100503.72;;;24.82;87.54
17525;BME280;40431;52.198;9.902;2023-06-26T11:38:52;100502.94;;;24.74;88.58
17525;BME280;40431;52.198;9.902;2023-06-26T11:41:20;100500.91;;;24.67;89.87
17525;BME280;40431;52.198;9.902;2023-06-26T11:43:47;100503.53;;;24.61;89.50
17525;BME280;40431;52.198;9.902;2023-06-26T11:46:16;100506.66;;;24.43;91.35
17525;BME280;40431;52.198;9.902;2023-06-26T11:48:42;100509.00;;;24.31;92.66
17525;BME280;40431;52.198;9.902;2023-06-26T11:51:09;100511.94;;;24.29;92.24
17525;BME280;40431;52.198;9.902;2023-06-26T11:53:39;100505.78;;;24.19;92.64
17525;BME280;40431;52.198;9.902;2023-06-26T11:56:08;100513.72;;;24.22;92.58
17525;BME280;40431;52.198;9.902;2023-06-26T11:58:36;100515.63;;;24.22;89.40
17525;BME280;40431;52.198;9.902;2023-06-26T12:01:02;100522.41;;;24.19;88.97
17525;BME280;40431;52.198;9.902;2023-06-26T12:03:29;100527.66;;;24.37;88.01
17525;BME280;40431;52.198;9.902;2023-06-26T12:05:58;100520.84;;;24.40;89.03
17525;BME280;40431;52.198;9.902;2023-06-26T12:08:26;100517.53;;;24.67;89.01
17525;BME280;40431;52.198;9.902;2023-06-26T12:10:52;100524.78;;;24.92;88.13
17525;BME280;40431;52.198;9.902;2023-06-26T12:13:19;100521.91;;;25.00;85.19
17525;BME280;40431;52.198;9.902;2023-06-26T12:15:47;100522.56;;;24.87;86.17
17525;BME280;40431;52.198;9.902;2023-06-26T12:18:13;100518.34;;;24.91;83.51
17525;BME280;40431;52.198;9.902;2023-06-26T12:20:40;100516.31;;;24.70;84.52
17525;BME280;40431;52.198;9.902;2023-06-26T12:23:11;100523.09;;;24.44;83.96
17525;BME280;40431;52.198;9.902;2023-06-26T12:25:38;100529.75;;;24.35;84.11
17525;BME280;40431;52.198;9.902;2023-06-26T12:28:15;100526.78;;;24.13;82.75
17525;BME280;40431;52.198;9.902;2023-06-26T12:30:46;100534.59;;;24.10;81.15
17525;BME280;40431;52.198;9.902;2023-06-26T12:33:14;100530.84;;;24.26;80.91
17525;BME280;40431;52.198;9.902;2023-06-26T12:35:40;100535.97;;;24.37;71.13
17525;BME280;40431;52.198;9.902;2023-06-26T12:38:08;100534.56;;;24.41;72.59
17525;BME280;40431;52.198;9.902;2023-06-26T12:40:44;100529.25;;;24.31;71.62
17525;BME280;40431;52.198;9.902;2023-06-26T12:43:11;100532.81;;;24.40;71.70
17525;BME280;40431;52.198;9.902;2023-06-26T12:45:54;100539.34;;;24.47;72.40
17525;BME280;40431;52.198;9.902;2023-06-26T12:48:20;100536.47;;;24.56;71.21
17525;BME280;40431;52.198;9.902;2023-06-26T12:50:46;100541.28;;;24.62;72.12
17525;BME280;40431;52.198;9.902;2023-06-26T12:53:15;100546.84;;;24.62;72.08